createdAt,value
2023-01-09T00:02:00.641Z,7.21
2023-01-09T00:04:27.215Z,7.33
2023-01-09T00:06:54.329Z,7.45
2023-01-09T00:09:21.610Z,7.42
2023-01-09T00:11:48.505Z,7.46
2023-01-09T00:14:18.464Z,7.30
2023-01-09T00:16:45.177Z,7.29
2023-01-09T00:19:11.854Z,7.24
2023-01-09T00:21:38.497Z,7.32
2023-01-09T00:24:05.383Z,7.29
2023-01-09T00:26:32.286Z,7.35
2023-01-09T00:29:01.275Z,7.26
2023-01-09T00:31:27.843Z,7.02
2023-01-09T00:34:02.579Z,7.25
2023-01-09T00:36:29.263Z,7.22
2023-01-09T00:38:56.017Z,7.22
2023-01-09T00:41:27.771Z,7.37
2023-01-09T00:43:57.357Z,7.34
2023-01-09T00:46:27.247Z,7.36
2023-01-09T00:48:53.995Z,7.67
2023-01-09T00:51:20.660Z,7.53
2023-01-09T00:53:48.703Z,7.55
2023-01-09T00:56:16.729Z,7.73
2023-01-09T00:58:43.356Z,7.44
2023-01-09T01:01:10.009Z,7.12
2023-01-09T01:03:36.631Z,7.02
2023-01-09T01:06:21.787Z,7.15
2023-01-09T01:08:48.402Z,7.15
2023-01-09T01:11:15.032Z,7.05
2023-01-09T01:13:42.035Z,7.09
2023-01-09T01:16:09.428Z,7.39
2023-01-09T01:18:36.405Z,7.39
2023-01-09T01:21:13.247Z,7.75
2023-01-09T01:23:39.906Z,7.71
2023-01-09T01:26:07.500Z,7.83
2023-01-09T01:28:34.171Z,8.04
2023-01-09T01:31:01.007Z,7.85
2023-01-09T01:33:27.751Z,7.79
2023-01-09T01:36:04.823Z,7.93
2023-01-09T01:38:31.855Z,8.26
2023-01-09T01:40:58.469Z,8.20
2023-01-09T01:43:25.070Z,7.92
2023-01-09T01:45:52.172Z,8.10
2023-01-09T01:48:26.953Z,8.28
2023-01-09T01:50:59.416Z,8.30
2023-01-09T01:53:32.813Z,8.39
2023-01-09T01:55:59.363Z,8.45
2023-01-09T01:58:26.684Z,8.52
2023-01-09T02:00:53.748Z,8.57
2023-01-09T02:03:22.299Z,8.41
2023-01-09T02:05:49.093Z,8.70
2023-01-09T02:08:15.709Z,8.59
2023-01-09T02:10:42.601Z,8.71
2023-01-09T02:13:09.784Z,8.91
2023-01-09T02:15:48.580Z,9.06
2023-01-09T02:18:26.856Z,8.95
2023-01-09T02:20:56.598Z,8.67
2023-01-09T02:23:35.272Z,8.87
2023-01-09T02:26:07.753Z,8.81
2023-01-09T02:28:43.171Z,8.65
2023-01-09T02:31:19.441Z,8.94
2023-01-09T02:33:59.018Z,8.82
2023-01-09T02:36:31.687Z,8.95
2023-01-09T02:39:04.023Z,9.12
2023-01-09T02:41:39.787Z,8.79
2023-01-09T02:44:23.213Z,9.13
2023-01-09T02:47:03.617Z,9.05
2023-01-09T02:49:31.171Z,9.29
2023-01-09T02:52:04.343Z,9.08
2023-01-09T02:54:51.150Z,9.17
2023-01-09T02:57:30.162Z,8.76
2023-01-09T03:00:09.864Z,8.79
2023-01-09T03:02:36.504Z,8.77
2023-01-09T03:05:08.984Z,8.90
2023-01-09T03:07:42.980Z,9.19
2023-01-09T03:10:15.540Z,9.20
2023-01-09T03:12:43.097Z,9.07
2023-01-09T03:15:12.541Z,9.02
2023-01-09T03:17:41.490Z,9.13
2023-01-09T03:20:10.376Z,9.30
2023-01-09T03:22:38.818Z,8.78
2023-01-09T03:25:05.822Z,9.10
2023-01-09T03:27:32.428Z,9.09
2023-01-09T03:29:58.922Z,9.04
2023-01-09T03:32:27.791Z,8.94
2023-01-09T03:34:54.399Z,9.08
2023-01-09T03:37:20.917Z,8.58
2023-01-09T03:39:47.424Z,8.80
2023-01-09T03:42:13.975Z,8.72
2023-01-09T03:44:40.453Z,8.63
2023-01-09T03:47:07.019Z,8.76
2023-01-09T03:49:33.583Z,8.61
2023-01-09T03:52:00.130Z,8.52
2023-01-09T03:54:26.623Z,8.81
2023-01-09T03:56:53.191Z,8.36
2023-01-09T03:59:19.705Z,8.79
2023-01-09T04:01:46.326Z,8.72
2023-01-09T04:04:12.974Z,8.57
2023-01-09T04:06:39.516Z,8.39
2023-01-09T04:09:06.008Z,8.55
2023-01-09T04:13:59.144Z,8.67
2023-01-09T04:16:25.780Z,8.38
2023-01-09T04:18:52.335Z,8.35
2023-01-09T04:21:18.895Z,8.33
2023-01-09T04:23:45.653Z,8.31
2023-01-09T04:26:12.222Z,8.71
2023-01-09T04:28:38.727Z,8.49
2023-01-09T04:31:05.454Z,8.54
2023-01-09T04:33:31.969Z,8.61
2023-01-09T04:35:58.949Z,8.45
2023-01-09T04:38:27.104Z,8.25
2023-01-09T04:40:53.695Z,8.48
2023-01-09T04:43:20.254Z,8.62
2023-01-09T04:45:46.821Z,8.60
2023-01-09T04:48:13.462Z,8.52
2023-01-09T04:50:39.978Z,8.72
2023-01-09T04:53:06.980Z,8.60
2023-01-09T04:55:33.851Z,8.64
2023-01-09T04:58:00.360Z,8.74
2023-01-09T05:00:26.992Z,8.96
2023-01-09T05:02:53.538Z,8.75
2023-01-09T05:05:20.259Z,8.57
2023-01-09T05:07:46.845Z,8.90
2023-01-09T05:10:13.448Z,8.76
2023-01-09T05:12:40.176Z,8.70
2023-01-09T05:15:07.683Z,8.62
2023-01-09T05:17:34.280Z,8.71
2023-01-09T05:20:03.866Z,8.78
2023-01-09T05:22:30.435Z,8.82
2023-01-09T05:24:57.966Z,8.81
2023-01-09T05:27:27.311Z,8.37
2023-01-09T05:29:53.833Z,8.68
2023-01-09T05:32:20.357Z,8.79
2023-01-09T05:34:46.895Z,8.82
2023-01-09T05:37:13.429Z,8.76
2023-01-09T05:39:40.067Z,8.51
2023-01-09T05:42:06.592Z,8.75
2023-01-09T05:44:33.115Z,8.78
2023-01-09T05:47:01.920Z,8.89
2023-01-09T05:49:29.201Z,9.08
2023-01-09T05:51:55.760Z,9.04
2023-01-09T05:54:22.356Z,8.91
2023-01-09T05:56:48.870Z,8.78
2023-01-09T05:59:15.433Z,8.85
2023-01-09T06:01:41.955Z,9.03
2023-01-09T06:04:08.563Z,9.09
2023-01-09T06:06:35.036Z,8.64
2023-01-09T06:09:03.478Z,8.55
2023-01-09T06:11:29.955Z,8.32
2023-01-09T06:13:56.501Z,8.58
2023-01-09T06:16:23.089Z,8.36
2023-01-09T06:18:50.457Z,8.58
2023-01-09T06:21:16.944Z,8.68
2023-01-09T06:23:43.777Z,8.41
2023-01-09T06:26:10.273Z,8.74
2023-01-09T06:28:36.834Z,8.54
2023-01-09T06:31:03.440Z,8.64
2023-01-09T06:33:30.074Z,8.70
2023-01-09T06:35:56.551Z,8.76
2023-01-09T06:38:23.269Z,8.73
2023-01-09T06:40:50.830Z,8.73
2023-01-09T06:43:17.359Z,8.84
2023-01-09T06:45:43.897Z,8.81
2023-01-09T06:48:10.729Z,8.88
2023-01-09T06:50:37.224Z,8.95
2023-01-09T06:53:03.775Z,8.75
2023-01-09T06:55:30.251Z,9.07
2023-01-09T06:57:56.852Z,8.97
2023-01-09T07:00:23.563Z,9.13
2023-01-09T07:02:50.132Z,8.84
2023-01-09T07:05:16.785Z,8.89
2023-01-09T07:07:43.431Z,8.88
2023-01-09T07:10:10.555Z,8.95
2023-01-09T07:12:37.153Z,9.08
2023-01-09T07:15:03.839Z,8.96
2023-01-09T07:17:30.415Z,8.91
2023-01-09T07:19:56.897Z,8.87
2023-01-09T07:22:23.545Z,9.06
2023-01-09T07:24:50.052Z,8.84
2023-01-09T07:27:16.573Z,8.73
2023-01-09T07:29:43.140Z,8.81
2023-01-09T07:32:09.796Z,8.86
2023-01-09T07:34:38.143Z,8.85
2023-01-09T07:37:04.808Z,8.93
2023-01-09T07:39:31.308Z,8.76
2023-01-09T07:41:57.834Z,8.69
2023-01-09T07:44:25.689Z,8.81
2023-01-09T07:46:52.234Z,8.96
2023-01-09T07:49:18.759Z,8.95
2023-01-09T07:51:45.854Z,8.90
2023-01-09T07:54:15.039Z,9.01
2023-01-09T07:56:41.603Z,8.84
2023-01-09T07:59:08.139Z,8.68
2023-01-09T08:01:34.892Z,8.96
2023-01-09T08:04:01.483Z,8.78
2023-01-09T08:06:28.139Z,8.91
2023-01-09T08:08:54.643Z,8.74
2023-01-09T08:11:21.589Z,8.55
2023-01-09T08:13:48.136Z,8.54
2023-01-09T08:16:14.923Z,8.38
2023-01-09T08:18:41.521Z,8.37
2023-01-09T08:21:08.152Z,8.33
2023-01-09T08:23:34.896Z,8.23
2023-01-09T08:26:01.443Z,8.15
2023-01-09T08:28:28.063Z,8.41
2023-01-09T08:30:54.602Z,8.34
2023-01-09T08:33:21.215Z,8.24
2023-01-09T08:35:48.084Z,8.29
2023-01-09T08:38:14.717Z,8.25
2023-01-09T08:40:41.284Z,8.20
2023-01-09T08:43:27.069Z,8.19
2023-01-09T08:46:12.197Z,8.19
2023-01-09T08:48:38.742Z,8.08
2023-01-09T08:51:05.293Z,8.10
2023-01-09T08:53:31.847Z,7.98
2023-01-09T08:55:59.200Z,7.99
2023-01-09T08:58:25.961Z,7.93
2023-01-09T09:00:52.471Z,7.89
2023-01-09T09:03:19.188Z,7.92
2023-01-09T09:05:46.896Z,8.09
2023-01-09T09:08:13.864Z,7.94
2023-01-09T09:10:40.499Z,7.95
2023-01-09T09:13:07.114Z,7.91
2023-01-09T09:15:34.516Z,7.98
2023-01-09T09:18:03.283Z,8.01
2023-01-09T09:20:31.738Z,8.02
2023-01-09T09:22:58.299Z,7.98
2023-01-09T09:25:25.121Z,7.95
2023-01-09T09:27:52.206Z,8.04
2023-01-09T09:30:19.672Z,8.06
2023-01-09T09:32:46.601Z,8.34
2023-01-09T09:35:13.199Z,8.27
2023-01-09T09:37:40.884Z,8.21
2023-01-09T09:40:17.960Z,8.44
2023-01-09T09:43:06.973Z,8.37
2023-01-09T09:45:33.491Z,8.48
2023-01-09T09:48:15.082Z,8.73
2023-01-09T09:50:41.667Z,8.67
2023-01-09T09:53:23.435Z,8.79
2023-01-09T09:55:50.936Z,8.78
2023-01-09T09:58:21.774Z,8.99
2023-01-09T10:00:50.283Z,9.34
2023-01-09T10:03:33.399Z,9.36
2023-01-09T10:06:03.171Z,9.41
2023-01-09T10:08:44.817Z,9.73
2023-01-09T10:11:22.152Z,9.65
2023-01-09T10:14:16.013Z,9.43
2023-01-09T10:16:58.470Z,10.00
2023-01-09T10:19:33.816Z,10.22
2023-01-09T10:22:06.264Z,10.23
2023-01-09T10:24:37.543Z,10.21
2023-01-09T10:27:12.379Z,10.65
2023-01-09T10:29:54.908Z,11.11
2023-01-09T10:32:36.531Z,11.90
2023-01-09T10:35:03.059Z,13.12
2023-01-09T10:37:31.254Z,14.02
2023-01-09T10:40:02.868Z,14.34
2023-01-09T10:42:34.563Z,15.40
2023-01-09T10:45:03.892Z,16.04
2023-01-09T10:47:34.453Z,16.18
2023-01-09T10:50:02.510Z,16.23
2023-01-09T10:52:33.021Z,17.30
2023-01-09T10:55:16.985Z,18.09
2023-01-09T10:57:44.983Z,18.52
2023-01-09T11:00:16.090Z,17.18
2023-01-09T11:02:42.755Z,15.94
2023-01-09T11:05:13.447Z,17.31
2023-01-09T11:07:42.222Z,17.77
2023-01-09T11:10:11.852Z,18.16
2023-01-09T11:12:39.065Z,17.75
2023-01-09T11:15:28.985Z,18.56
2023-01-09T11:17:58.743Z,18.12
2023-01-09T11:20:27.461Z,16.15
2023-01-09T11:22:55.457Z,14.66
2023-01-09T11:25:23.161Z,13.18
2023-01-09T11:28:01.808Z,11.94
2023-01-09T11:30:29.172Z,11.50
2023-01-09T11:32:56.286Z,11.15
2023-01-09T11:35:24.559Z,11.33
2023-01-09T11:37:58.757Z,13.21
2023-01-09T11:40:25.489Z,14.50
2023-01-09T11:43:06.123Z,14.64
2023-01-09T11:45:34.501Z,15.45
2023-01-09T11:48:01.699Z,16.71
2023-01-09T11:50:29.945Z,18.26
2023-01-09T11:53:13.731Z,18.19
2023-01-09T11:55:42.815Z,16.87
2023-01-09T11:58:14.717Z,17.01
2023-01-09T12:00:49.618Z,17.52
2023-01-09T12:03:25.394Z,17.14
2023-01-09T12:05:51.980Z,17.96
2023-01-09T12:08:21.555Z,17.22
2023-01-09T12:11:01.233Z,16.25
2023-01-09T12:13:33.911Z,15.30
2023-01-09T12:16:06.356Z,13.54
2023-01-09T12:18:32.927Z,13.30
2023-01-09T12:21:02.461Z,12.68
2023-01-09T12:23:44.074Z,12.55
2023-01-09T12:26:13.358Z,12.19
2023-01-09T12:28:42.661Z,11.94
2023-01-09T12:31:18.213Z,11.63
2023-01-09T12:33:44.806Z,11.45
2023-01-09T12:36:11.284Z,11.34
2023-01-09T12:38:37.823Z,11.35
2023-01-09T12:41:23.144Z,11.23
2023-01-09T12:43:57.834Z,11.35
2023-01-09T12:46:26.632Z,11.37
2023-01-09T12:49:12.001Z,11.14
2023-01-09T12:51:38.598Z,11.12
2023-01-09T12:54:10.299Z,11.23
2023-01-09T12:56:49.782Z,11.06
2023-01-09T12:59:19.292Z,11.20
2023-01-09T13:01:47.864Z,11.19
2023-01-09T13:04:20.345Z,11.18
2023-01-09T13:06:56.635Z,11.00
2023-01-09T13:09:41.906Z,11.12
2023-01-09T13:12:16.079Z,10.96
2023-01-09T13:14:45.546Z,10.89
2023-01-09T13:17:16.300Z,11.07
2023-01-09T13:19:42.914Z,10.96
2023-01-09T13:22:14.383Z,11.21
2023-01-09T13:24:53.075Z,10.70
2023-01-09T13:27:20.973Z,11.29
2023-01-09T13:29:50.443Z,11.08
2023-01-09T13:32:20.045Z,11.12
2023-01-09T13:34:47.901Z,11.03
2023-01-09T13:37:24.051Z,11.01
2023-01-09T13:39:58.182Z,11.01
2023-01-09T13:42:39.801Z,11.29
2023-01-09T13:45:33.316Z,11.97
2023-01-09T13:48:19.184Z,12.47
2023-01-09T13:50:47.376Z,13.28
2023-01-09T13:53:19.908Z,13.58
2023-01-09T13:55:55.448Z,13.34
2023-01-09T13:58:22.772Z,12.73
2023-01-09T14:00:50.127Z,12.55
2023-01-09T14:03:31.494Z,12.47
2023-01-09T14:05:58.016Z,12.36
2023-01-09T14:08:26.871Z,12.68
2023-01-09T14:10:57.764Z,12.95
2023-01-09T14:13:26.363Z,12.84
2023-01-09T14:16:01.063Z,12.13
2023-01-09T14:18:32.864Z,11.73
2023-01-09T14:21:00.739Z,11.62
2023-01-09T14:23:45.931Z,11.51
2023-01-09T14:26:19.543Z,11.55
2023-01-09T14:28:46.646Z,11.40
2023-01-09T14:31:33.534Z,11.09
2023-01-09T14:34:30.151Z,11.23
2023-01-09T14:37:00.949Z,11.09
2023-01-09T14:39:29.909Z,11.27
2023-01-09T14:42:06.306Z,11.14
2023-01-09T14:44:47.114Z,11.23
2023-01-09T14:47:36.859Z,11.21
2023-01-09T14:50:12.567Z,10.98
2023-01-09T14:52:45.270Z,10.71
2023-01-09T14:55:23.102Z,10.68
2023-01-09T14:57:54.705Z,10.24
2023-01-09T15:00:22.271Z,10.43
2023-01-09T15:02:50.527Z,10.34
2023-01-09T15:05:22.445Z,10.21
2023-01-09T15:07:52.069Z,10.21
2023-01-09T15:10:38.952Z,10.49
2023-01-09T15:13:07.539Z,10.38
2023-01-09T15:15:35.066Z,10.28
2023-01-09T15:18:06.358Z,10.36
2023-01-09T15:20:33.507Z,10.30
2023-01-09T15:23:01.057Z,10.41
2023-01-09T15:25:44.643Z,10.41
2023-01-09T15:28:26.981Z,10.18
2023-01-09T15:30:59.793Z,10.38
2023-01-09T15:33:27.074Z,10.41
2023-01-09T15:36:00.050Z,10.28
2023-01-09T15:38:27.507Z,10.27
2023-01-09T15:40:55.913Z,10.28
2023-01-09T15:43:22.659Z,10.32
2023-01-09T15:45:49.458Z,10.32
2023-01-09T15:48:16.059Z,10.42
2023-01-09T15:50:42.713Z,10.22
2023-01-09T15:53:16.389Z,10.35
2023-01-09T15:55:43.330Z,10.39
2023-01-09T15:58:29.636Z,10.71
2023-01-09T16:00:58.641Z,10.65
2023-01-09T16:03:25.859Z,10.79
2023-01-09T16:06:02.600Z,10.63
2023-01-09T16:08:31.371Z,10.46
2023-01-09T16:11:02.948Z,10.62
2023-01-09T16:13:30.613Z,10.69
2023-01-09T16:15:58.768Z,10.65
2023-01-09T16:18:29.897Z,10.44
2023-01-09T16:21:04.123Z,10.29
2023-01-09T16:23:32.069Z,10.58
2023-01-09T16:26:12.109Z,10.28
2023-01-09T16:28:41.038Z,10.54
2023-01-09T16:31:18.323Z,10.55
2023-01-09T16:33:50.092Z,10.62
2023-01-09T16:36:21.209Z,10.35
2023-01-09T16:38:47.876Z,10.27
2023-01-09T16:41:34.415Z,10.25
2023-01-09T16:44:01.496Z,10.24
2023-01-09T16:46:28.723Z,9.69
2023-01-09T16:48:55.507Z,9.79
2023-01-09T16:51:22.955Z,9.90
2023-01-09T16:53:50.051Z,9.64
2023-01-09T16:56:19.971Z,9.52
2023-01-09T16:58:46.544Z,9.58
2023-01-09T17:01:15.880Z,9.69
2023-01-09T17:03:43.925Z,9.57
2023-01-09T17:06:24.713Z,9.60
2023-01-09T17:08:51.643Z,9.59
2023-01-09T17:11:25.099Z,9.75
2023-01-09T17:13:51.686Z,9.80
2023-01-09T17:16:18.480Z,9.61
2023-01-09T17:18:45.118Z,9.80
2023-01-09T17:21:32.088Z,9.67
2023-01-09T17:24:34.683Z,9.54
2023-01-09T17:27:20.642Z,9.69
2023-01-09T17:29:47.534Z,9.65
2023-01-09T17:32:18.190Z,9.69
2023-01-09T17:34:44.983Z,9.62
2023-01-09T17:37:15.882Z,9.44
2023-01-09T17:39:42.928Z,9.40
2023-01-09T17:42:10.308Z,9.11
2023-01-09T17:44:36.935Z,9.45
2023-01-09T17:47:03.547Z,9.35
2023-01-09T17:49:30.179Z,9.37
2023-01-09T17:51:56.669Z,9.32
2023-01-09T17:54:23.305Z,9.12
2023-01-09T17:56:51.104Z,8.88
2023-01-09T17:59:18.269Z,8.81
2023-01-09T18:01:45.179Z,8.64
2023-01-09T18:04:11.916Z,8.82
2023-01-09T18:06:38.409Z,8.84
2023-01-09T18:09:05.957Z,8.92
2023-01-09T18:11:32.868Z,8.95
2023-01-09T18:13:59.501Z,8.89
2023-01-09T18:16:27.719Z,8.52
2023-01-09T18:18:57.575Z,8.66
2023-01-09T18:21:24.993Z,8.74
2023-01-09T18:23:51.749Z,8.61
2023-01-09T18:26:21.490Z,8.79
2023-01-09T18:29:06.083Z,8.93
2023-01-09T18:31:33.412Z,8.74
2023-01-09T18:34:02.572Z,8.80
2023-01-09T18:36:30.137Z,8.65
2023-01-09T18:39:00.996Z,8.65
2023-01-09T18:41:28.082Z,8.75
2023-01-09T18:43:55.496Z,8.67
2023-01-09T18:46:25.107Z,8.67
2023-01-09T18:48:55.616Z,8.52
2023-01-09T18:51:22.852Z,8.68
2023-01-09T18:53:49.859Z,8.50
2023-01-09T18:56:16.740Z,8.68
2023-01-09T18:58:43.240Z,8.52
2023-01-09T19:01:09.871Z,8.57
2023-01-09T19:03:36.497Z,8.58
2023-01-09T19:06:03.954Z,8.42
2023-01-09T19:08:34.250Z,8.58
2023-01-09T19:11:01.073Z,8.67
2023-01-09T19:13:31.349Z,8.30
2023-01-09T19:15:58.483Z,8.27
2023-01-09T19:18:25.475Z,8.27
2023-01-09T19:20:52.844Z,8.20
2023-01-09T19:23:20.185Z,8.23
2023-01-09T19:25:47.379Z,8.14
2023-01-09T19:28:14.135Z,8.09
2023-01-09T19:30:40.810Z,8.24
2023-01-09T19:33:07.443Z,8.06
2023-01-09T19:35:34.137Z,8.14
2023-01-09T19:38:00.660Z,8.12
2023-01-09T19:40:27.315Z,7.95
2023-01-09T19:42:54.674Z,7.75
2023-01-09T19:45:21.413Z,7.96
2023-01-09T19:47:49.325Z,7.90
2023-01-09T19:50:17.088Z,7.84
2023-01-09T19:52:44.152Z,7.90
2023-01-09T19:55:13.567Z,7.70
2023-01-09T19:57:40.989Z,7.65
2023-01-09T20:00:07.965Z,7.66
2023-01-09T20:02:39.056Z,7.72
2023-01-09T20:05:05.879Z,7.69
2023-01-09T20:07:32.501Z,7.58
2023-01-09T20:09:59.056Z,7.67
2023-01-09T20:12:25.559Z,7.70
2023-01-09T20:14:52.328Z,7.70
2023-01-09T20:17:19.770Z,7.91
2023-01-09T20:19:46.300Z,7.78
2023-01-09T20:22:13.017Z,7.67
2023-01-09T20:24:39.659Z,7.84
2023-01-09T20:27:06.557Z,7.74
2023-01-09T20:29:33.306Z,7.74
2023-01-09T20:32:01.296Z,7.69
2023-01-09T20:34:28.010Z,7.72
2023-01-09T20:36:54.811Z,7.75
2023-01-09T20:39:21.437Z,7.64
2023-01-09T20:41:48.269Z,7.60
2023-01-09T20:44:15.854Z,7.78
2023-01-09T20:46:44.764Z,7.61
2023-01-09T20:49:12.822Z,7.60
2023-01-09T20:51:43.726Z,7.65
2023-01-09T20:54:10.278Z,7.70
2023-01-09T20:56:36.881Z,7.72
2023-01-09T20:59:04.326Z,7.76
2023-01-09T21:01:30.802Z,7.64
2023-01-09T21:03:57.920Z,7.67
2023-01-09T21:06:25.881Z,7.67
2023-01-09T21:08:53.129Z,7.64
2023-01-09T21:11:21.258Z,7.58
2023-01-09T21:13:47.914Z,7.33
2023-01-09T21:16:15.741Z,7.42
2023-01-09T21:18:43.359Z,7.53
2023-01-09T21:21:13.548Z,7.47
2023-01-09T21:23:44.269Z,7.49
2023-01-09T21:26:11.886Z,7.27
2023-01-09T21:28:46.080Z,7.33
2023-01-09T21:31:13.199Z,7.42
2023-01-09T21:33:40.256Z,7.55
2023-01-09T21:36:07.243Z,7.30
2023-01-09T21:38:33.812Z,7.40
2023-01-09T21:41:20.371Z,7.63
2023-01-09T21:44:05.663Z,7.61
2023-01-09T21:46:50.999Z,7.61
2023-01-09T21:49:18.252Z,7.69
2023-01-09T21:51:44.790Z,7.74
2023-01-09T21:54:11.444Z,7.69
2023-01-09T21:56:38.082Z,7.69
2023-01-09T21:59:04.935Z,7.64
2023-01-09T22:01:31.462Z,7.71
2023-01-09T22:03:58.124Z,7.73
2023-01-09T22:06:25.098Z,7.59
2023-01-09T22:08:51.813Z,7.69
2023-01-09T22:11:18.362Z,7.71
2023-01-09T22:13:48.288Z,7.80
2023-01-09T22:16:14.913Z,7.77
2023-01-09T22:18:41.427Z,7.69
2023-01-09T22:21:08.128Z,7.76
2023-01-09T22:23:34.715Z,7.81
2023-01-09T22:26:06.879Z,7.94
2023-01-09T22:28:33.407Z,7.80
2023-01-09T22:30:59.911Z,7.75
2023-01-09T22:33:26.642Z,7.95
2023-01-09T22:35:53.123Z,7.86
2023-01-09T22:38:19.676Z,7.75
2023-01-09T22:40:46.147Z,7.90
2023-01-09T22:43:16.147Z,7.90
2023-01-09T22:45:43.109Z,7.96
2023-01-09T22:48:09.987Z,7.85
2023-01-09T22:50:36.815Z,7.74
2023-01-09T22:53:03.414Z,7.73
2023-01-09T22:55:29.975Z,7.85
2023-01-09T22:57:56.512Z,7.72
2023-01-09T23:00:23.098Z,7.86
2023-01-09T23:02:49.818Z,7.82
2023-01-09T23:05:16.733Z,7.89
2023-01-09T23:07:43.262Z,8.01
2023-01-09T23:10:10.120Z,8.10
2023-01-09T23:12:36.602Z,8.22
2023-01-09T23:15:03.408Z,8.07
2023-01-09T23:17:29.926Z,8.33
2023-01-09T23:19:56.457Z,8.25
2023-01-09T23:22:22.993Z,8.26
2023-01-09T23:24:49.554Z,8.12
2023-01-09T23:27:16.074Z,8.12
2023-01-09T23:29:42.649Z,8.08
2023-01-09T23:32:09.121Z,8.11
2023-01-09T23:34:35.722Z,8.05
2023-01-09T23:37:04.072Z,8.17
2023-01-09T23:39:30.618Z,8.22
2023-01-09T23:42:15.738Z,7.88
2023-01-09T23:44:42.280Z,7.98
2023-01-09T23:47:08.861Z,7.80
2023-01-09T23:49:35.424Z,7.72
2023-01-09T23:52:04.945Z,7.76
2023-01-09T23:54:31.483Z,7.95
2023-01-09T23:56:58.140Z,7.88
2023-01-09T23:59:24.740Z,8.09
